Main page
METAR-TAF:

METAR-TAF

Airports :

Jeddah, Saudi Arabia

King Abdulaziz International Airport

latitude: 21-42N, longitude: 039-11E, elevation: 15 m

Current weather observation

The report was made 16 minutes ago, at 02:00 UTC
Wind 6 kt from the North/Northwest
Temperature 32°C
Humidity 63%
Pressure 1000 hPa
Visibility 10 km or more
Scattered clouds at a height of 4000 ft

METAR: OEJN 200200Z 34006KT 9999 SCT040 32/24 Q1000 NOSIG

Time: 05:16 (02:16 UTC)

Forecast

The report was made 3 hours and 16 minutes ago, at 23:00 UTC
Forecast valid from 20 at 00 UTC to 21 at 06 UTC
Wind 3 kt from variable directions
Visibility 10 km or more
Few clouds at a height of 4000 ft
Scattered clouds at a height of 10000 ft
Temporary
from 20 at 00 UTC to 20 at 06 UTC
Visibility: 8000 m
Scattered clouds at a height of 4000 ft
Becoming
from 20 at 06 UTC to 20 at 08 UTC
Wind 12 kt from the West/Southwest

TAF: OEJN 192300Z 2000/2106 VRB03KT 9999 FEW040 SCT100 TEMPO 2000/2006 8000 SCT040 BECMG 2006/2008 24012KT

Weather observations and forecasts of more than 4000 airports (METAR and TAF reports).

The available stations are represented by yellow and red dots on the map.

Hover mouse over dot to see the name of the station.

Then click to see weather observations and forecasts.

To change the map : click on the green buttons with a black cross to zoom in, on the green button with a dash to zoom out, or on the green arrows for adjacent maps.


METAR-TAF: